createdAt,value
2023-01-06T00:00:07.526Z,3.38
2023-01-06T00:03:12.766Z,3.26
2023-01-06T00:06:01.499Z,3.21
2023-01-06T00:08:50.511Z,3.13
2023-01-06T00:11:38.880Z,3.19
2023-01-06T00:14:28.055Z,3.20
2023-01-06T00:17:21.353Z,3.22
2023-01-06T00:20:10.127Z,3.24
2023-01-06T00:23:04.458Z,3.24
2023-01-06T00:25:53.155Z,3.27
2023-01-06T00:28:43.516Z,3.31
2023-01-06T00:34:03.731Z,3.38
2023-01-06T00:36:57.995Z,3.27
2023-01-06T00:39:44.337Z,3.34
2023-01-06T00:42:31.069Z,3.31
2023-01-06T00:45:23.183Z,3.25
2023-01-06T00:48:09.901Z,3.17
2023-01-06T00:51:01.510Z,3.12
2023-01-06T00:53:48.359Z,3.11
2023-01-06T00:56:40.479Z,3.19
2023-01-06T00:59:27.339Z,3.21
2023-01-06T01:02:14.978Z,3.20
2023-01-06T01:05:01.818Z,3.23
2023-01-06T01:07:48.373Z,3.20
2023-01-06T01:10:35.182Z,3.18
2023-01-06T01:13:22.591Z,3.14
2023-01-06T01:16:10.220Z,3.15
2023-01-06T01:18:58.067Z,3.08
2023-01-06T01:21:44.792Z,3.05
2023-01-06T01:24:34.497Z,3.07
2023-01-06T01:27:21.368Z,3.03
2023-01-06T01:30:09.192Z,3.03
2023-01-06T01:33:13.713Z,2.95
2023-01-06T01:36:09.147Z,2.76
2023-01-06T01:38:57.353Z,2.88
2023-01-06T01:41:44.501Z,2.92
2023-01-06T01:44:54.120Z,2.87
2023-01-06T01:47:56.167Z,2.81
2023-01-06T01:50:52.414Z,2.87
2023-01-06T01:53:44.933Z,2.88
2023-01-06T01:56:36.962Z,2.87
2023-01-06T01:59:31.204Z,2.93
2023-01-06T02:02:20.279Z,2.89
2023-01-06T02:05:08.000Z,2.80
2023-01-06T02:08:01.421Z,2.76
2023-01-06T02:10:49.776Z,2.70
2023-01-06T02:13:47.738Z,2.77
2023-01-06T02:17:06.651Z,2.69
2023-01-06T02:20:24.532Z,2.64
2023-01-06T02:23:56.223Z,2.59
2023-01-06T02:26:59.101Z,2.53
2023-01-06T02:30:04.793Z,2.51
2023-01-06T02:33:18.818Z,2.56
2023-01-06T02:36:29.609Z,2.66
2023-01-06T02:39:48.325Z,2.58
2023-01-06T02:42:42.164Z,2.58
2023-01-06T02:45:41.811Z,2.63
2023-01-06T02:48:44.787Z,2.61
2023-01-06T02:51:47.515Z,2.71
2023-01-06T02:54:55.332Z,2.60
2023-01-06T02:57:53.775Z,2.58
2023-01-06T03:00:52.112Z,2.51
2023-01-06T03:03:44.887Z,2.51
2023-01-06T03:06:44.624Z,2.59
2023-01-06T03:09:37.550Z,2.59
2023-01-06T03:12:32.752Z,2.61
2023-01-06T03:15:20.308Z,2.60
2023-01-06T03:18:07.677Z,2.56
2023-01-06T03:20:59.417Z,2.65
2023-01-06T03:23:47.008Z,2.67
2023-01-06T03:26:33.724Z,2.65
2023-01-06T03:29:21.742Z,2.73
2023-01-06T03:32:14.641Z,2.77
2023-01-06T03:35:31.000Z,2.82
2023-01-06T03:38:20.342Z,2.76
2023-01-06T03:42:04.453Z,2.78
2023-01-06T03:45:08.515Z,2.67
2023-01-06T03:48:10.587Z,2.65
2023-01-06T03:51:05.601Z,2.64
2023-01-06T03:54:01.402Z,2.69
2023-01-06T03:57:11.478Z,2.72
2023-01-06T04:00:15.706Z,2.70
2023-01-06T04:03:02.567Z,2.68
2023-01-06T04:05:48.938Z,2.71
2023-01-06T04:08:35.813Z,2.74
2023-01-06T04:11:40.928Z,2.67
2023-01-06T04:14:28.643Z,2.58
2023-01-06T04:17:15.450Z,2.64
2023-01-06T04:20:02.779Z,2.71
2023-01-06T04:22:49.539Z,2.71
2023-01-06T04:25:36.632Z,2.64
2023-01-06T04:28:23.244Z,2.69
2023-01-06T04:31:10.197Z,2.69
2023-01-06T04:33:57.293Z,2.72
2023-01-06T04:36:44.274Z,2.75
2023-01-06T04:39:32.140Z,2.73
2023-01-06T04:42:20.441Z,2.71
2023-01-06T04:45:08.047Z,2.74
2023-01-06T04:47:55.706Z,2.77
2023-01-06T04:50:42.433Z,2.71
2023-01-06T04:53:28.908Z,2.74
2023-01-06T04:56:15.568Z,2.77
2023-01-06T04:59:02.383Z,2.69
2023-01-06T05:02:01.267Z,2.64
2023-01-06T05:04:49.014Z,2.61
2023-01-06T05:07:39.642Z,2.59
2023-01-06T05:10:37.040Z,2.63
2023-01-06T05:13:23.782Z,2.64
2023-01-06T05:16:32.300Z,2.61
2023-01-06T05:19:19.139Z,2.61
2023-01-06T05:22:05.785Z,2.60
2023-01-06T05:24:52.440Z,2.55
2023-01-06T05:27:39.204Z,2.54
2023-01-06T05:30:25.763Z,2.49
2023-01-06T05:33:13.174Z,2.47
2023-01-06T05:36:09.284Z,2.51
2023-01-06T05:38:56.184Z,2.39
2023-01-06T05:41:43.715Z,2.43
2023-01-06T05:44:33.163Z,2.45
2023-01-06T05:47:19.960Z,2.49
2023-01-06T05:50:07.221Z,2.49
2023-01-06T05:52:54.118Z,2.33
2023-01-06T05:55:41.419Z,2.35
2023-01-06T05:58:28.888Z,2.32
2023-01-06T06:01:31.339Z,2.28
2023-01-06T06:04:18.726Z,2.31
2023-01-06T06:07:05.781Z,2.29
2023-01-06T06:09:53.618Z,2.28
2023-01-06T06:12:40.419Z,2.29
2023-01-06T06:15:27.004Z,2.29
2023-01-06T06:18:13.802Z,2.24
2023-01-06T06:21:05.553Z,2.15
2023-01-06T06:23:53.872Z,2.10
2023-01-06T06:26:41.675Z,2.18
2023-01-06T06:29:30.557Z,2.12
2023-01-06T06:32:17.615Z,2.11
2023-01-06T06:35:04.695Z,2.08
2023-01-06T06:37:53.746Z,2.07
2023-01-06T06:40:45.108Z,2.12
2023-01-06T06:43:32.478Z,2.15
2023-01-06T06:46:20.404Z,2.18
2023-01-06T06:49:07.387Z,2.16
2023-01-06T06:51:55.524Z,2.07
2023-01-06T06:54:43.111Z,2.08
2023-01-06T06:57:30.210Z,2.08
2023-01-06T07:00:17.312Z,2.12
2023-01-06T07:03:03.814Z,2.21
2023-01-06T07:05:52.873Z,2.25
2023-01-06T07:08:43.377Z,2.24
2023-01-06T07:11:29.842Z,2.24
2023-01-06T07:14:16.441Z,2.27
2023-01-06T07:17:03.228Z,2.28
2023-01-06T07:19:49.577Z,2.30
2023-01-06T07:22:40.484Z,2.27
2023-01-06T07:25:27.344Z,2.28
2023-01-06T07:28:13.512Z,2.29
2023-01-06T07:31:08.792Z,2.28
2023-01-06T07:33:55.577Z,2.26
2023-01-06T07:36:42.179Z,2.26
2023-01-06T07:39:29.022Z,2.30
2023-01-06T07:42:21.391Z,2.35
2023-01-06T07:45:08.702Z,2.43
2023-01-06T07:47:56.756Z,2.46
2023-01-06T07:50:43.711Z,2.42
2023-01-06T07:53:30.372Z,2.43
2023-01-06T07:56:19.113Z,2.44
2023-01-06T07:59:06.153Z,2.42
2023-01-06T08:01:53.111Z,2.45
2023-01-06T08:04:40.180Z,2.55
2023-01-06T08:07:27.079Z,2.63
2023-01-06T08:10:13.816Z,2.70
2023-01-06T08:13:00.731Z,2.73
2023-01-06T08:15:51.809Z,2.76
2023-01-06T08:18:39.437Z,2.72
2023-01-06T08:21:25.787Z,2.68
2023-01-06T08:24:13.865Z,2.60
2023-01-06T08:27:00.555Z,2.65
2023-01-06T08:29:50.189Z,2.71
2023-01-06T08:32:37.146Z,2.80
2023-01-06T08:35:24.435Z,2.84
2023-01-06T08:38:10.895Z,2.87
2023-01-06T08:40:58.731Z,2.91
2023-01-06T08:43:47.166Z,2.95
2023-01-06T08:46:34.572Z,2.97
2023-01-06T08:49:21.745Z,3.03
2023-01-06T08:52:08.371Z,3.05
2023-01-06T08:54:55.262Z,3.03
2023-01-06T08:57:41.901Z,3.00
2023-01-06T09:00:28.709Z,3.04
2023-01-06T09:03:15.989Z,3.12
2023-01-06T09:06:04.345Z,3.17
2023-01-06T09:08:51.475Z,3.20
2023-01-06T09:11:40.526Z,3.24
2023-01-06T09:14:27.160Z,3.18
2023-01-06T09:17:13.749Z,3.15
2023-01-06T09:20:00.537Z,3.16
2023-01-06T09:22:48.158Z,3.16
2023-01-06T09:25:34.694Z,3.16
2023-01-06T09:28:28.734Z,3.23
2023-01-06T09:31:15.134Z,3.33
2023-01-06T09:34:01.645Z,3.33
2023-01-06T09:36:47.933Z,3.30
2023-01-06T09:39:37.110Z,3.27
2023-01-06T09:42:35.506Z,3.23
2023-01-06T09:45:30.730Z,3.18
2023-01-06T09:48:24.109Z,3.04
2023-01-06T09:51:18.837Z,2.59
2023-01-06T09:54:42.742Z,2.54
2023-01-06T09:57:34.234Z,2.43
2023-01-06T10:00:35.216Z,2.47
2023-01-06T10:03:24.389Z,2.54
2023-01-06T10:06:38.635Z,2.63
2023-01-06T10:09:37.514Z,2.55
2023-01-06T10:12:56.132Z,2.43
2023-01-06T10:16:01.637Z,2.57
2023-01-06T10:19:03.296Z,2.60
2023-01-06T10:22:04.888Z,2.61
2023-01-06T10:25:12.517Z,2.53
2023-01-06T10:28:02.631Z,2.57
2023-01-06T10:30:51.589Z,2.56
2023-01-06T10:34:01.181Z,2.53
2023-01-06T10:37:05.378Z,2.52
2023-01-06T10:39:59.260Z,2.40
2023-01-06T10:42:55.643Z,2.26
2023-01-06T10:45:44.200Z,2.27
2023-01-06T10:48:33.447Z,2.15
2023-01-06T10:51:39.219Z,2.17
2023-01-06T10:54:29.995Z,2.15
2023-01-06T10:57:32.340Z,2.16
2023-01-06T11:00:24.477Z,2.14
2023-01-06T11:03:31.895Z,2.14
2023-01-06T11:06:29.032Z,2.01
2023-01-06T11:09:41.230Z,2.12
2023-01-06T11:12:29.825Z,2.09
2023-01-06T11:15:24.479Z,2.22
2023-01-06T11:18:24.864Z,2.27
2023-01-06T11:21:20.697Z,2.44
2023-01-06T11:24:18.994Z,2.55
2023-01-06T11:27:16.888Z,2.58
2023-01-06T11:30:25.747Z,2.46
2023-01-06T11:33:22.344Z,2.33
2023-01-06T11:40:34.312Z,2.50
2023-01-06T11:43:29.009Z,2.33
2023-01-06T11:46:16.104Z,2.37
2023-01-06T11:49:06.455Z,2.45
2023-01-06T11:56:14.321Z,2.34
2023-01-06T11:59:15.111Z,2.52
2023-01-06T12:02:02.657Z,2.55
2023-01-06T12:04:52.852Z,2.48
2023-01-06T12:07:46.095Z,2.47
2023-01-06T12:10:37.630Z,2.41
2023-01-06T12:13:25.227Z,2.29
2023-01-06T12:20:41.504Z,2.21
2023-01-06T12:23:33.144Z,2.30
2023-01-06T12:26:24.750Z,2.25
2023-01-06T12:29:17.624Z,2.38
2023-01-06T12:32:22.630Z,2.44
2023-01-06T12:35:16.456Z,2.31
2023-01-06T12:38:55.192Z,2.39
2023-01-06T12:41:52.229Z,2.31
2023-01-06T12:45:01.800Z,2.22
2023-01-06T12:47:55.362Z,2.20
2023-01-06T12:51:15.606Z,2.20
2023-01-06T12:54:11.577Z,2.18
2023-01-06T12:57:35.798Z,2.22
2023-01-06T13:00:53.913Z,2.19
2023-01-06T13:04:14.045Z,2.21
2023-01-06T13:07:19.605Z,2.21
2023-01-06T13:10:24.784Z,2.33
2023-01-06T13:13:23.703Z,2.30
2023-01-06T13:16:24.053Z,2.25
2023-01-06T13:19:19.769Z,2.15
2023-01-06T13:22:11.813Z,2.12
2023-01-06T13:25:25.550Z,2.16
2023-01-06T13:28:20.124Z,2.12
2023-01-06T13:31:29.354Z,2.11
2023-01-06T13:34:37.657Z,2.14
2023-01-06T13:37:37.659Z,2.24
2023-01-06T13:40:29.597Z,2.27
2023-01-06T13:43:24.378Z,2.17
2023-01-06T13:46:16.163Z,2.19
2023-01-06T13:49:05.289Z,2.11
2023-01-06T13:51:53.747Z,2.01
2023-01-06T13:54:40.241Z,2.11
2023-01-06T13:57:31.782Z,2.11
2023-01-06T14:00:30.820Z,2.16
2023-01-06T14:03:24.219Z,1.99
2023-01-06T14:06:40.081Z,2.04
2023-01-06T14:09:28.295Z,2.06
2023-01-06T14:12:22.239Z,1.96
2023-01-06T14:15:26.636Z,1.92
2023-01-06T14:18:38.713Z,1.85
2023-01-06T14:21:28.877Z,1.87
2023-01-06T14:24:35.232Z,1.88
2023-01-06T14:27:47.705Z,1.71
2023-01-06T14:30:36.647Z,1.71
2023-01-06T14:33:35.764Z,1.76
2023-01-06T14:36:23.560Z,1.81
2023-01-06T14:39:21.106Z,1.89
2023-01-06T14:42:41.825Z,1.86
2023-01-06T14:45:35.203Z,1.74
2023-01-06T14:48:26.248Z,1.84
2023-01-06T14:51:17.739Z,1.85
2023-01-06T14:54:13.857Z,1.96
2023-01-06T14:57:01.320Z,1.87
2023-01-06T15:00:08.635Z,1.94
2023-01-06T15:02:57.503Z,2.04
2023-01-06T15:05:44.793Z,2.13
2023-01-06T15:08:31.491Z,2.20
2023-01-06T15:14:33.243Z,2.17
2023-01-06T15:17:20.914Z,2.18
2023-01-06T15:20:13.533Z,2.11
2023-01-06T15:23:00.723Z,2.03
2023-01-06T15:25:55.786Z,1.99
2023-01-06T15:28:42.342Z,1.98
2023-01-06T15:31:35.197Z,1.96
2023-01-06T15:34:30.100Z,1.78
2023-01-06T15:37:25.365Z,1.83
2023-01-06T15:40:22.722Z,1.80
2023-01-06T15:43:09.071Z,1.71
2023-01-06T15:46:01.877Z,1.74
2023-01-06T15:48:49.739Z,1.86
2023-01-06T15:51:36.425Z,1.83
2023-01-06T15:54:25.204Z,1.77
2023-01-06T15:57:16.488Z,1.72
2023-01-06T16:00:07.738Z,1.61
2023-01-06T16:02:55.984Z,1.67
2023-01-06T16:05:49.761Z,1.76
2023-01-06T16:08:37.059Z,1.68
2023-01-06T16:11:47.871Z,1.61
2023-01-06T16:14:38.596Z,1.67
2023-01-06T16:17:33.369Z,1.63
2023-01-06T16:20:24.758Z,1.70
2023-01-06T16:23:40.613Z,1.69
2023-01-06T16:26:30.070Z,1.72
2023-01-06T16:29:36.452Z,1.74
2023-01-06T16:32:30.127Z,1.54
2023-01-06T16:35:24.188Z,1.62
2023-01-06T16:38:10.808Z,1.52
2023-01-06T16:40:57.284Z,1.51
2023-01-06T16:43:45.427Z,1.51
2023-01-06T16:46:31.966Z,1.49
2023-01-06T16:49:20.432Z,1.51
2023-01-06T16:52:08.698Z,1.51
2023-01-06T16:54:57.251Z,1.47
2023-01-06T16:57:49.605Z,1.61
2023-01-06T17:00:39.376Z,1.55
2023-01-06T17:03:36.688Z,1.47
2023-01-06T17:06:26.543Z,1.48
2023-01-06T17:09:21.808Z,1.46
2023-01-06T17:12:34.386Z,1.37
2023-01-06T17:15:21.555Z,1.35
2023-01-06T17:18:28.906Z,1.40
2023-01-06T17:21:18.015Z,1.26
2023-01-06T17:24:18.657Z,1.17
2023-01-06T17:27:27.867Z,1.14
2023-01-06T17:30:19.766Z,1.10
2023-01-06T17:33:07.876Z,1.13
2023-01-06T17:39:19.130Z,1.10
2023-01-06T17:42:07.999Z,1.11
2023-01-06T17:45:01.864Z,1.03
2023-01-06T17:47:50.800Z,1.08
2023-01-06T17:50:47.809Z,1.08
2023-01-06T17:53:55.613Z,0.95
2023-01-06T17:56:48.418Z,0.97
2023-01-06T17:59:43.338Z,0.93
2023-01-06T18:02:44.518Z,0.82
2023-01-06T18:05:32.690Z,0.87
2023-01-06T18:08:21.237Z,0.96
2023-01-06T18:11:21.059Z,1.01
2023-01-06T18:14:22.860Z,1.00
2023-01-06T18:17:23.193Z,0.99
2023-01-06T18:20:10.124Z,0.81
2023-01-06T18:22:57.137Z,0.82
2023-01-06T18:25:43.987Z,0.90
2023-01-06T18:28:30.414Z,0.90
2023-01-06T18:31:17.447Z,0.88
2023-01-06T18:34:19.792Z,0.78
2023-01-06T18:37:06.521Z,0.79
2023-01-06T18:39:57.551Z,0.86
2023-01-06T18:42:46.611Z,0.73
2023-01-06T18:45:39.142Z,0.84
2023-01-06T18:48:31.895Z,0.93
2023-01-06T18:51:24.963Z,0.98
2023-01-06T18:54:19.199Z,1.00
2023-01-06T18:57:23.823Z,0.91
2023-01-06T19:00:36.224Z,0.92
2023-01-06T19:03:31.613Z,0.82
2023-01-06T19:06:17.960Z,0.95
2023-01-06T19:09:39.871Z,0.98
2023-01-06T19:12:36.063Z,0.93
2023-01-06T19:15:25.014Z,0.91
2023-01-06T19:18:16.387Z,0.90
2023-01-06T19:21:05.509Z,1.04
2023-01-06T19:23:51.715Z,1.13
2023-01-06T19:26:41.357Z,1.16
2023-01-06T19:29:32.430Z,1.14
2023-01-06T19:34:03.203Z,1.07
2023-01-06T19:36:52.296Z,0.96
2023-01-06T19:39:50.543Z,0.98
2023-01-06T19:42:36.851Z,1.02
2023-01-06T19:45:34.975Z,0.97
2023-01-06T19:48:30.503Z,1.03
2023-01-06T19:51:30.365Z,1.01
2023-01-06T19:54:16.919Z,1.06
2023-01-06T19:57:17.603Z,1.08
2023-01-06T20:00:23.403Z,1.01
2023-01-06T20:03:32.535Z,1.00
2023-01-06T20:06:20.192Z,1.02
2023-01-06T20:09:23.122Z,1.06
2023-01-06T20:12:09.882Z,0.94
2023-01-06T20:14:56.582Z,1.01
2023-01-06T20:17:43.110Z,1.10
2023-01-06T20:20:29.990Z,1.22
2023-01-06T20:23:18.368Z,1.17
2023-01-06T20:26:05.139Z,1.13
2023-01-06T20:28:52.052Z,1.12
2023-01-06T20:31:38.842Z,1.14
2023-01-06T20:34:25.760Z,1.09
2023-01-06T20:37:12.181Z,1.13
2023-01-06T20:40:01.270Z,1.21
2023-01-06T20:42:48.263Z,1.16
2023-01-06T20:45:34.963Z,1.19
2023-01-06T20:48:21.859Z,1.18
2023-01-06T20:51:10.092Z,1.19
2023-01-06T20:53:56.776Z,1.21
2023-01-06T20:56:43.684Z,1.26
2023-01-06T20:59:30.333Z,1.30
2023-01-06T21:02:17.177Z,1.27
2023-01-06T21:05:05.285Z,1.31
2023-01-06T21:07:51.903Z,1.32
2023-01-06T21:10:38.810Z,1.40
2023-01-06T21:13:25.493Z,1.41
2023-01-06T21:16:14.663Z,1.45
2023-01-06T21:19:01.056Z,1.46
2023-01-06T21:21:48.752Z,1.50
2023-01-06T21:24:35.572Z,1.42
2023-01-06T21:27:22.283Z,1.31
2023-01-06T21:30:09.786Z,1.34
2023-01-06T21:32:56.132Z,1.38
2023-01-06T21:35:44.067Z,1.41
2023-01-06T21:38:33.018Z,1.39
2023-01-06T21:41:38.762Z,1.40
2023-01-06T21:44:25.155Z,1.46
2023-01-06T21:47:11.862Z,1.45
2023-01-06T21:49:58.575Z,1.40
2023-01-06T21:52:46.619Z,1.39
2023-01-06T21:55:33.106Z,1.32
2023-01-06T21:58:21.483Z,1.32
2023-01-06T22:01:08.387Z,1.29
2023-01-06T22:03:54.908Z,1.32
2023-01-06T22:06:43.701Z,1.36
2023-01-06T22:09:31.475Z,1.46
2023-01-06T22:12:19.685Z,1.46
2023-01-06T22:15:09.107Z,1.38
2023-01-06T22:17:58.935Z,1.41
2023-01-06T22:20:46.146Z,1.43
2023-01-06T22:23:33.740Z,1.43
2023-01-06T22:26:20.376Z,1.41
2023-01-06T22:29:08.198Z,1.45
2023-01-06T22:32:00.045Z,1.47
2023-01-06T22:34:46.925Z,1.50
2023-01-06T22:37:33.635Z,1.54
2023-01-06T22:40:20.791Z,1.49
2023-01-06T22:43:12.265Z,1.50
2023-01-06T22:45:58.675Z,1.49
2023-01-06T22:48:45.809Z,1.52
2023-01-06T22:51:32.780Z,1.70
2023-01-06T22:54:19.376Z,1.75
2023-01-06T22:57:06.168Z,1.74
2023-01-06T22:59:52.857Z,1.76
2023-01-06T23:02:39.810Z,1.78
2023-01-06T23:05:26.794Z,1.85
2023-01-06T23:08:13.287Z,1.81
2023-01-06T23:11:02.286Z,1.80
2023-01-06T23:13:49.030Z,1.75
2023-01-06T23:16:36.400Z,1.71
2023-01-06T23:19:22.888Z,1.68
2023-01-06T23:22:09.274Z,1.73
2023-01-06T23:24:55.662Z,1.76
2023-01-06T23:27:42.297Z,1.78
2023-01-06T23:30:29.742Z,1.82
2023-01-06T23:33:15.952Z,1.83
2023-01-06T23:36:04.993Z,1.80
2023-01-06T23:38:52.260Z,1.76
2023-01-06T23:41:38.898Z,1.77
2023-01-06T23:44:25.589Z,1.80
2023-01-06T23:47:12.459Z,1.82
2023-01-06T23:49:59.271Z,1.82
2023-01-06T23:52:45.994Z,1.82
2023-01-06T23:55:32.651Z,1.86
2023-01-06T23:58:19.308Z,1.87
